Terminal Aerodrome Forecast
Issued by NWS Portland, OR

Current Version | Previous Version | Text Only | Print | Product List | Glossary On
Versions: 1 2 3 4 5 6 7 8 9 10 11 12 13 14 15 16 17 18 19 20 21 22 23 24 25 26 27
000
FTUS46 KPQR 220520
TAFHIO
TAF
KHIO 220520Z 2206/2306 32005KT P6SM SCT080 BKN150
     FM221400 00000KT P6SM BKN050
     FM221800 VRB04KT P6SM SCT050=

USA.gov is the U.S. government's official web portal to all federal, state and local government web resources and services.